sensor_id;sensor_type;location;lat;lon;timestamp;P1;durP1;ratioP1;P2;durP2;ratioP2
52188;SDS011;38162;45.926;13.608;2024-03-25T00:02:00;10.03;;;5.20;;
52188;SDS011;38162;45.926;13.608;2024-03-25T00:04:26;10.57;;;5.00;;
52188;SDS011;38162;45.926;13.608;2024-03-25T00:06:52;9.37;;;5.67;;
52188;SDS011;38162;45.926;13.608;2024-03-25T00:09:18;8.10;;;4.53;;
52188;SDS011;38162;45.926;13.608;2024-03-25T00:11:45;15.60;;;5.57;;
52188;SDS011;38162;45.926;13.608;2024-03-25T00:14:11;10.27;;;5.70;;
52188;SDS011;38162;45.926;13.608;2024-03-25T00:16:37;10.70;;;5.40;;
52188;SDS011;38162;45.926;13.608;2024-03-25T00:19:03;9.27;;;5.07;;
52188;SDS011;38162;45.926;13.608;2024-03-25T00:21:28;8.53;;;4.87;;
52188;SDS011;38162;45.926;13.608;2024-03-25T00:23:54;7.27;;;4.43;;
52188;SDS011;38162;45.926;13.608;2024-03-25T00:26:23;9.37;;;4.90;;
52188;SDS011;38162;45.926;13.608;2024-03-25T00:28:49;8.30;;;4.53;;
52188;SDS011;38162;45.926;13.608;2024-03-25T00:31:15;8.07;;;4.90;;
52188;SDS011;38162;45.926;13.608;2024-03-25T00:33:43;10.33;;;4.90;;
52188;SDS011;38162;45.926;13.608;2024-03-25T00:36:15;10.47;;;4.47;;
52188;SDS011;38162;45.926;13.608;2024-03-25T00:42:06;16.60;;;6.07;;
52188;SDS011;38162;45.926;13.608;2024-03-25T00:45:04;18.23;;;10.27;;
52188;SDS011;38162;45.926;13.608;2024-03-25T00:51:06;14.27;;;7.70;;
52188;SDS011;38162;45.926;13.608;2024-03-25T00:53:38;8.93;;;5.70;;
52188;SDS011;38162;45.926;13.608;2024-03-25T00:56:04;9.60;;;5.57;;
52188;SDS011;38162;45.926;13.608;2024-03-25T00:58:39;10.97;;;5.37;;
52188;SDS011;38162;45.926;13.608;2024-03-25T01:01:10;10.30;;;5.73;;
52188;SDS011;38162;45.926;13.608;2024-03-25T01:03:39;10.03;;;6.17;;
52188;SDS011;38162;45.926;13.608;2024-03-25T01:06:05;9.87;;;6.23;;
52188;SDS011;38162;45.926;13.608;2024-03-25T01:08:31;13.83;;;7.07;;
52188;SDS011;38162;45.926;13.608;2024-03-25T01:10:56;12.17;;;5.93;;
52188;SDS011;38162;45.926;13.608;2024-03-25T01:13:22;16.50;;;5.63;;
52188;SDS011;38162;45.926;13.608;2024-03-25T01:15:48;17.77;;;5.43;;
52188;SDS011;38162;45.926;13.608;2024-03-25T01:18:14;16.70;;;5.50;;
52188;SDS011;38162;45.926;13.608;2024-03-25T01:20:39;7.23;;;4.23;;
52188;SDS011;38162;45.926;13.608;2024-03-25T01:23:05;8.03;;;4.73;;
52188;SDS011;38162;45.926;13.608;2024-03-25T01:25:31;10.83;;;4.57;;
52188;SDS011;38162;45.926;13.608;2024-03-25T01:27:57;8.90;;;5.03;;
52188;SDS011;38162;45.926;13.608;2024-03-25T01:30:22;9.17;;;4.87;;
52188;SDS011;38162;45.926;13.608;2024-03-25T01:32:48;8.60;;;4.03;;
52188;SDS011;38162;45.926;13.608;2024-03-25T01:35:14;8.10;;;4.47;;
52188;SDS011;38162;45.926;13.608;2024-03-25T01:37:41;7.57;;;4.40;;
52188;SDS011;38162;45.926;13.608;2024-03-25T01:40:07;8.60;;;4.20;;
52188;SDS011;38162;45.926;13.608;2024-03-25T01:42:35;9.87;;;4.77;;
52188;SDS011;38162;45.926;13.608;2024-03-25T01:45:01;9.10;;;4.30;;
52188;SDS011;38162;45.926;13.608;2024-03-25T01:47:28;9.30;;;4.10;;
52188;SDS011;38162;45.926;13.608;2024-03-25T01:49:57;6.70;;;3.37;;
52188;SDS011;38162;45.926;13.608;2024-03-25T01:52:23;5.63;;;3.57;;
52188;SDS011;38162;45.926;13.608;2024-03-25T01:54:51;6.03;;;3.60;;
52188;SDS011;38162;45.926;13.608;2024-03-25T01:57:17;6.07;;;3.10;;
52188;SDS011;38162;45.926;13.608;2024-03-25T01:59:44;7.20;;;3.43;;
52188;SDS011;38162;45.926;13.608;2024-03-25T02:02:10;5.33;;;3.50;;
52188;SDS011;38162;45.926;13.608;2024-03-25T02:04:37;6.03;;;3.73;;
52188;SDS011;38162;45.926;13.608;2024-03-25T02:07:04;6.93;;;3.07;;
52188;SDS011;38162;45.926;13.608;2024-03-25T02:09:33;5.67;;;3.33;;
52188;SDS011;38162;45.926;13.608;2024-03-25T02:12:01;8.23;;;3.23;;
52188;SDS011;38162;45.926;13.608;2024-03-25T02:14:27;5.80;;;3.10;;
52188;SDS011;38162;45.926;13.608;2024-03-25T02:16:55;7.03;;;3.00;;
52188;SDS011;38162;45.926;13.608;2024-03-25T02:23:27;7.60;;;3.70;;
52188;SDS011;38162;45.926;13.608;2024-03-25T02:26:43;17.87;;;4.63;;
52188;SDS011;38162;45.926;13.608;2024-03-25T02:32:31;11.70;;;4.63;;
52188;SDS011;38162;45.926;13.608;2024-03-25T02:35:18;11.67;;;4.50;;
52188;SDS011;38162;45.926;13.608;2024-03-25T02:37:56;13.63;;;4.37;;
52188;SDS011;38162;45.926;13.608;2024-03-25T02:40:47;11.33;;;4.07;;
52188;SDS011;38162;45.926;13.608;2024-03-25T02:43:17;12.40;;;3.87;;
52188;SDS011;38162;45.926;13.608;2024-03-25T02:45:46;9.13;;;3.87;;
52188;SDS011;38162;45.926;13.608;2024-03-25T02:48:12;7.47;;;3.63;;
52188;SDS011;38162;45.926;13.608;2024-03-25T02:50:38;8.03;;;3.90;;
52188;SDS011;38162;45.926;13.608;2024-03-25T02:53:04;7.57;;;3.73;;
52188;SDS011;38162;45.926;13.608;2024-03-25T02:55:31;13.57;;;4.20;;
52188;SDS011;38162;45.926;13.608;2024-03-25T02:57:57;6.60;;;3.63;;
52188;SDS011;38162;45.926;13.608;2024-03-25T03:00:23;6.40;;;3.40;;
52188;SDS011;38162;45.926;13.608;2024-03-25T03:02:48;6.13;;;3.10;;
52188;SDS011;38162;45.926;13.608;2024-03-25T03:05:15;5.03;;;2.97;;
52188;SDS011;38162;45.926;13.608;2024-03-25T03:07:41;6.50;;;2.63;;
52188;SDS011;38162;45.926;13.608;2024-03-25T03:10:07;4.67;;;2.77;;
52188;SDS011;38162;45.926;13.608;2024-03-25T03:12:33;5.83;;;3.10;;
52188;SDS011;38162;45.926;13.608;2024-03-25T03:14:58;4.20;;;2.60;;
52188;SDS011;38162;45.926;13.608;2024-03-25T03:17:24;5.47;;;2.87;;
52188;SDS011;38162;45.926;13.608;2024-03-25T03:19:50;5.40;;;2.70;;
52188;SDS011;38162;45.926;13.608;2024-03-25T03:22:15;6.53;;;3.13;;
52188;SDS011;38162;45.926;13.608;2024-03-25T03:24:41;5.23;;;2.97;;
52188;SDS011;38162;45.926;13.608;2024-03-25T03:27:07;4.70;;;2.70;;
52188;SDS011;38162;45.926;13.608;2024-03-25T03:29:33;6.43;;;3.13;;
52188;SDS011;38162;45.926;13.608;2024-03-25T03:31:58;10.77;;;2.57;;
52188;SDS011;38162;45.926;13.608;2024-03-25T03:34:25;7.63;;;2.30;;
52188;SDS011;38162;45.926;13.608;2024-03-25T03:36:51;3.57;;;2.00;;
52188;SDS011;38162;45.926;13.608;2024-03-25T03:39:16;3.20;;;1.90;;
52188;SDS011;38162;45.926;13.608;2024-03-25T03:41:42;2.70;;;1.60;;
52188;SDS011;38162;45.926;13.608;2024-03-25T03:44:08;3.27;;;1.93;;
52188;SDS011;38162;45.926;13.608;2024-03-25T03:46:34;2.63;;;1.30;;
52188;SDS011;38162;45.926;13.608;2024-03-25T03:49:00;4.00;;;1.93;;
52188;SDS011;38162;45.926;13.608;2024-03-25T03:51:26;6.30;;;2.00;;
52188;SDS011;38162;45.926;13.608;2024-03-25T03:53:52;5.13;;;2.27;;
52188;SDS011;38162;45.926;13.608;2024-03-25T03:56:18;3.43;;;1.83;;
52188;SDS011;38162;45.926;13.608;2024-03-25T03:58:44;6.40;;;2.30;;
52188;SDS011;38162;45.926;13.608;2024-03-25T04:01:31;4.63;;;2.27;;
52188;SDS011;38162;45.926;13.608;2024-03-25T04:04:27;7.80;;;2.53;;
52188;SDS011;38162;45.926;13.608;2024-03-25T04:10:28;4.47;;;2.00;;
52188;SDS011;38162;45.926;13.608;2024-03-25T04:13:03;3.23;;;1.77;;
52188;SDS011;38162;45.926;13.608;2024-03-25T04:16:17;7.63;;;2.30;;
52188;SDS011;38162;45.926;13.608;2024-03-25T04:26:26;7.17;;;2.37;;
52188;SDS011;38162;45.926;13.608;2024-03-25T04:28:58;6.05;;;2.15;;
52188;SDS011;38162;45.926;13.608;2024-03-25T04:31:24;5.67;;;2.10;;
52188;SDS011;38162;45.926;13.608;2024-03-25T04:33:50;8.23;;;2.13;;
52188;SDS011;38162;45.926;13.608;2024-03-25T04:36:16;6.67;;;3.33;;
52188;SDS011;38162;45.926;13.608;2024-03-25T04:38:42;7.67;;;3.27;;
52188;SDS011;38162;45.926;13.608;2024-03-25T04:41:08;7.57;;;3.03;;
52188;SDS011;38162;45.926;13.608;2024-03-25T04:43:33;7.00;;;2.93;;
52188;SDS011;38162;45.926;13.608;2024-03-25T04:46:02;6.97;;;2.80;;
52188;SDS011;38162;45.926;13.608;2024-03-25T04:48:28;8.57;;;2.50;;
52188;SDS011;38162;45.926;13.608;2024-03-25T04:50:54;4.97;;;2.37;;
52188;SDS011;38162;45.926;13.608;2024-03-25T04:53:20;6.37;;;2.53;;
52188;SDS011;38162;45.926;13.608;2024-03-25T04:55:46;4.73;;;2.07;;
52188;SDS011;38162;45.926;13.608;2024-03-25T04:58:11;6.50;;;1.80;;
52188;SDS011;38162;45.926;13.608;2024-03-25T05:00:37;2.80;;;1.30;;
52188;SDS011;38162;45.926;13.608;2024-03-25T05:03:03;4.10;;;1.20;;
52188;SDS011;38162;45.926;13.608;2024-03-25T05:05:29;1.97;;;1.10;;
52188;SDS011;38162;45.926;13.608;2024-03-25T05:07:55;3.37;;;1.10;;
52188;SDS011;38162;45.926;13.608;2024-03-25T05:10:21;2.87;;;1.33;;
52188;SDS011;38162;45.926;13.608;2024-03-25T05:12:46;4.70;;;1.57;;
52188;SDS011;38162;45.926;13.608;2024-03-25T05:15:14;3.30;;;1.10;;
52188;SDS011;38162;45.926;13.608;2024-03-25T05:17:40;9.00;;;1.40;;
52188;SDS011;38162;45.926;13.608;2024-03-25T05:20:06;3.10;;;1.37;;
52188;SDS011;38162;45.926;13.608;2024-03-25T05:22:32;5.90;;;1.67;;
52188;SDS011;38162;45.926;13.608;2024-03-25T05:24:58;11.13;;;2.50;;
52188;SDS011;38162;45.926;13.608;2024-03-25T05:27:24;11.13;;;2.73;;
52188;SDS011;38162;45.926;13.608;2024-03-25T05:29:50;14.53;;;2.90;;
52188;SDS011;38162;45.926;13.608;2024-03-25T05:32:15;6.83;;;2.53;;
52188;SDS011;38162;45.926;13.608;2024-03-25T05:34:42;8.70;;;2.60;;
52188;SDS011;38162;45.926;13.608;2024-03-25T05:37:08;4.60;;;2.00;;
52188;SDS011;38162;45.926;13.608;2024-03-25T05:39:34;8.17;;;2.40;;
52188;SDS011;38162;45.926;13.608;2024-03-25T05:42:00;12.30;;;2.27;;
52188;SDS011;38162;45.926;13.608;2024-03-25T05:51:13;7.90;;;2.13;;
52188;SDS011;38162;45.926;13.608;2024-03-25T06:04:55;3.27;;;1.50;;
52188;SDS011;38162;45.926;13.608;2024-03-25T06:07:33;3.73;;;1.53;;
52188;SDS011;38162;45.926;13.608;2024-03-25T06:10:02;6.10;;;1.67;;
52188;SDS011;38162;45.926;13.608;2024-03-25T06:12:32;9.27;;;1.63;;
52188;SDS011;38162;45.926;13.608;2024-03-25T06:14:58;3.73;;;1.33;;
52188;SDS011;38162;45.926;13.608;2024-03-25T06:17:23;16.67;;;2.40;;
52188;SDS011;38162;45.926;13.608;2024-03-25T06:19:49;8.50;;;2.70;;
52188;SDS011;38162;45.926;13.608;2024-03-25T06:22:16;5.77;;;2.07;;
52188;SDS011;38162;45.926;13.608;2024-03-25T06:24:42;5.23;;;1.53;;
52188;SDS011;38162;45.926;13.608;2024-03-25T06:27:09;4.50;;;1.77;;
52188;SDS011;38162;45.926;13.608;2024-03-25T06:29:35;4.50;;;1.80;;
52188;SDS011;38162;45.926;13.608;2024-03-25T06:32:01;10.67;;;2.20;;
52188;SDS011;38162;45.926;13.608;2024-03-25T06:34:45;13.13;;;1.90;;
52188;SDS011;38162;45.926;13.608;2024-03-25T06:37:11;18.70;;;2.17;;
52188;SDS011;38162;45.926;13.608;2024-03-25T06:39:37;7.70;;;1.90;;
52188;SDS011;38162;45.926;13.608;2024-03-25T06:42:02;5.50;;;1.70;;
52188;SDS011;38162;45.926;13.608;2024-03-25T06:44:28;8.77;;;1.70;;
52188;SDS011;38162;45.926;13.608;2024-03-25T06:46:54;3.83;;;1.63;;
52188;SDS011;38162;45.926;13.608;2024-03-25T06:49:21;7.40;;;1.90;;
52188;SDS011;38162;45.926;13.608;2024-03-25T06:51:46;10.10;;;2.87;;
52188;SDS011;38162;45.926;13.608;2024-03-25T06:54:12;6.83;;;2.47;;
52188;SDS011;38162;45.926;13.608;2024-03-25T06:56:38;4.23;;;1.87;;
52188;SDS011;38162;45.926;13.608;2024-03-25T06:59:05;14.70;;;2.13;;
52188;SDS011;38162;45.926;13.608;2024-03-25T07:01:31;8.10;;;2.53;;
52188;SDS011;38162;45.926;13.608;2024-03-25T07:03:57;7.27;;;1.80;;
52188;SDS011;38162;45.926;13.608;2024-03-25T07:06:23;8.27;;;2.20;;
52188;SDS011;38162;45.926;13.608;2024-03-25T07:08:50;7.53;;;1.80;;
52188;SDS011;38162;45.926;13.608;2024-03-25T07:11:16;3.83;;;1.80;;
52188;SDS011;38162;45.926;13.608;2024-03-25T07:13:42;4.03;;;1.53;;
52188;SDS011;38162;45.926;13.608;2024-03-25T07:16:08;2.77;;;1.47;;
52188;SDS011;38162;45.926;13.608;2024-03-25T07:18:34;5.50;;;1.37;;
52188;SDS011;38162;45.926;13.608;2024-03-25T07:21:00;7.27;;;1.60;;
52188;SDS011;38162;45.926;13.608;2024-03-25T07:23:26;3.70;;;1.60;;
52188;SDS011;38162;45.926;13.608;2024-03-25T07:25:52;2.60;;;1.30;;
52188;SDS011;38162;45.926;13.608;2024-03-25T07:31:50;7.47;;;1.80;;
52188;SDS011;38162;45.926;13.608;2024-03-25T07:34:18;4.07;;;1.50;;
52188;SDS011;38162;45.926;13.608;2024-03-25T07:39:57;2.73;;;1.30;;
52188;SDS011;38162;45.926;13.608;2024-03-25T07:42:50;3.37;;;1.40;;
52188;SDS011;38162;45.926;13.608;2024-03-25T07:45:16;5.93;;;1.20;;
52188;SDS011;38162;45.926;13.608;2024-03-25T07:47:42;4.20;;;1.10;;
52188;SDS011;38162;45.926;13.608;2024-03-25T07:53:05;1.90;;;1.17;;
52188;SDS011;38162;45.926;13.608;2024-03-25T07:55:38;5.25;;;0.85;;
52188;SDS011;38162;45.926;13.608;2024-03-25T07:58:04;4.63;;;1.03;;
52188;SDS011;38162;45.926;13.608;2024-03-25T08:00:31;2.30;;;1.00;;
52188;SDS011;38162;45.926;13.608;2024-03-25T08:02:56;3.33;;;1.17;;
52188;SDS011;38162;45.926;13.608;2024-03-25T08:05:22;2.63;;;0.80;;
52188;SDS011;38162;45.926;13.608;2024-03-25T08:07:48;2.40;;;0.97;;
52188;SDS011;38162;45.926;13.608;2024-03-25T08:10:14;1.70;;;0.90;;
52188;SDS011;38162;45.926;13.608;2024-03-25T08:12:39;2.50;;;0.98;;
52188;SDS011;38162;45.926;13.608;2024-03-25T08:15:05;2.67;;;1.00;;
52188;SDS011;38162;45.926;13.608;2024-03-25T08:17:31;1.33;;;0.70;;
52188;SDS011;38162;45.926;13.608;2024-03-25T08:19:57;2.30;;;1.00;;
52188;SDS011;38162;45.926;13.608;2024-03-25T08:22:23;2.17;;;0.80;;
52188;SDS011;38162;45.926;13.608;2024-03-25T08:24:48;1.98;;;0.82;;
52188;SDS011;38162;45.926;13.608;2024-03-25T08:27:14;3.50;;;0.88;;
52188;SDS011;38162;45.926;13.608;2024-03-25T08:29:40;1.67;;;0.80;;
52188;SDS011;38162;45.926;13.608;2024-03-25T08:32:06;0.88;;;0.55;;
52188;SDS011;38162;45.926;13.608;2024-03-25T08:34:32;2.28;;;0.98;;
52188;SDS011;38162;45.926;13.608;2024-03-25T08:36:57;1.75;;;0.75;;
52188;SDS011;38162;45.926;13.608;2024-03-25T08:39:23;2.88;;;0.68;;
52188;SDS011;38162;45.926;13.608;2024-03-25T08:41:49;2.00;;;0.60;;
52188;SDS011;38162;45.926;13.608;2024-03-25T08:44:14;1.63;;;0.77;;
52188;SDS011;38162;45.926;13.608;2024-03-25T08:46:40;1.42;;;0.80;;
52188;SDS011;38162;45.926;13.608;2024-03-25T08:49:06;1.30;;;0.70;;
52188;SDS011;38162;45.926;13.608;2024-03-25T08:51:32;3.17;;;0.55;;
52188;SDS011;38162;45.926;13.608;2024-03-25T08:53:57;1.27;;;0.70;;
52188;SDS011;38162;45.926;13.608;2024-03-25T08:56:23;2.80;;;0.70;;
52188;SDS011;38162;45.926;13.608;2024-03-25T08:58:49;3.53;;;0.65;;
52188;SDS011;38162;45.926;13.608;2024-03-25T09:01:15;1.92;;;0.80;;
52188;SDS011;38162;45.926;13.608;2024-03-25T09:03:41;1.98;;;0.50;;
52188;SDS011;38162;45.926;13.608;2024-03-25T09:06:07;1.25;;;0.50;;
52188;SDS011;38162;45.926;13.608;2024-03-25T09:08:33;4.20;;;0.68;;
52188;SDS011;38162;45.926;13.608;2024-03-25T09:11:19;4.95;;;1.10;;
52188;SDS011;38162;45.926;13.608;2024-03-25T09:14:23;2.72;;;0.65;;
52188;SDS011;38162;45.926;13.608;2024-03-25T09:17:11;6.72;;;1.02;;
52188;SDS011;38162;45.926;13.608;2024-03-25T09:20:09;3.33;;;1.00;;
52188;SDS011;38162;45.926;13.608;2024-03-25T09:26:26;3.78;;;0.70;;
52188;SDS011;38162;45.926;13.608;2024-03-25T09:29:42;2.38;;;0.70;;
52188;SDS011;38162;45.926;13.608;2024-03-25T09:32:11;1.02;;;0.50;;
52188;SDS011;38162;45.926;13.608;2024-03-25T09:34:37;4.93;;;0.75;;
52188;SDS011;38162;45.926;13.608;2024-03-25T09:37:51;4.45;;;1.00;;
52188;SDS011;38162;45.926;13.608;2024-03-25T09:40:17;6.90;;;1.70;;
52188;SDS011;38162;45.926;13.608;2024-03-25T09:42:47;10.10;;;0.85;;
52188;SDS011;38162;45.926;13.608;2024-03-25T09:45:17;3.45;;;0.60;;
52188;SDS011;38162;45.926;13.608;2024-03-25T09:47:46;7.25;;;1.67;;
52188;SDS011;38162;45.926;13.608;2024-03-25T09:50:13;2.72;;;0.60;;
52188;SDS011;38162;45.926;13.608;2024-03-25T09:52:44;5.03;;;0.80;;
52188;SDS011;38162;45.926;13.608;2024-03-25T09:55:10;1.95;;;0.50;;
52188;SDS011;38162;45.926;13.608;2024-03-25T09:57:36;4.15;;;0.70;;
52188;SDS011;38162;45.926;13.608;2024-03-25T10:00:07;0.63;;;0.40;;
52188;SDS011;38162;45.926;13.608;2024-03-25T10:02:36;0.85;;;0.40;;
52188;SDS011;38162;45.926;13.608;2024-03-25T10:05:04;0.52;;;0.25;;
52188;SDS011;38162;45.926;13.608;2024-03-25T10:07:31;1.00;;;0.50;;
52188;SDS011;38162;45.926;13.608;2024-03-25T10:09:56;1.30;;;0.50;;
52188;SDS011;38162;45.926;13.608;2024-03-25T10:12:23;0.95;;;0.32;;
52188;SDS011;38162;45.926;13.608;2024-03-25T10:14:49;0.30;;;0.30;;
52188;SDS011;38162;45.926;13.608;2024-03-25T10:17:15;1.05;;;0.30;;
52188;SDS011;38162;45.926;13.608;2024-03-25T10:19:41;1.15;;;0.40;;
52188;SDS011;38162;45.926;13.608;2024-03-25T10:22:08;1.13;;;0.30;;
52188;SDS011;38162;45.926;13.608;2024-03-25T10:24:41;0.35;;;0.30;;
52188;SDS011;38162;45.926;13.608;2024-03-25T10:29:45;0.25;;;0.20;;
52188;SDS011;38162;45.926;13.608;2024-03-25T10:32:16;0.73;;;0.40;;
52188;SDS011;38162;45.926;13.608;2024-03-25T10:34:42;1.05;;;0.63;;
52188;SDS011;38162;45.926;13.608;2024-03-25T10:37:09;5.82;;;1.00;;
52188;SDS011;38162;45.926;13.608;2024-03-25T10:39:43;2.15;;;0.80;;
52188;SDS011;38162;45.926;13.608;2024-03-25T10:42:21;1.30;;;0.57;;
52188;SDS011;38162;45.926;13.608;2024-03-25T10:44:48;0.88;;;0.63;;
52188;SDS011;38162;45.926;13.608;2024-03-25T10:47:19;1.65;;;0.70;;
52188;SDS011;38162;45.926;13.608;2024-03-25T10:49:49;1.50;;;0.80;;
52188;SDS011;38162;45.926;13.608;2024-03-25T10:52:23;2.42;;;1.00;;
52188;SDS011;38162;45.926;13.608;2024-03-25T10:54:51;3.40;;;0.70;;
52188;SDS011;38162;45.926;13.608;2024-03-25T10:57:30;1.63;;;0.80;;
52188;SDS011;38162;45.926;13.608;2024-03-25T11:00:08;3.33;;;0.80;;
52188;SDS011;38162;45.926;13.608;2024-03-25T11:03:07;2.03;;;0.60;;
52188;SDS011;38162;45.926;13.608;2024-03-25T11:15:05;0.43;;;0.40;;
52188;SDS011;38162;45.926;13.608;2024-03-25T11:21:13;2.55;;;0.60;;
52188;SDS011;38162;45.926;13.608;2024-03-25T11:24:29;2.35;;;0.47;;
52188;SDS011;38162;45.926;13.608;2024-03-25T11:26:58;2.17;;;0.75;;
52188;SDS011;38162;45.926;13.608;2024-03-25T11:29:38;2.47;;;0.52;;
52188;SDS011;38162;45.926;13.608;2024-03-25T11:32:07;1.15;;;0.50;;
52188;SDS011;38162;45.926;13.608;2024-03-25T11:34:33;4.93;;;0.47;;
52188;SDS011;38162;45.926;13.608;2024-03-25T11:37:00;3.05;;;0.50;;
52188;SDS011;38162;45.926;13.608;2024-03-25T11:39:27;1.50;;;0.60;;
52188;SDS011;38162;45.926;13.608;2024-03-25T11:41:53;0.88;;;0.47;;
52188;SDS011;38162;45.926;13.608;2024-03-25T11:44:19;1.40;;;0.30;;
52188;SDS011;38162;45.926;13.608;2024-03-25T11:46:49;0.50;;;0.30;;
52188;SDS011;38162;45.926;13.608;2024-03-25T11:49:15;2.45;;;0.40;;
52188;SDS011;38162;45.926;13.608;2024-03-25T11:51:44;0.35;;;0.30;;
52188;SDS011;38162;45.926;13.608;2024-03-25T11:54:11;0.93;;;0.40;;
52188;SDS011;38162;45.926;13.608;2024-03-25T11:56:38;1.08;;;0.40;;
52188;SDS011;38162;45.926;13.608;2024-03-25T11:59:04;0.88;;;0.50;;
52188;SDS011;38162;45.926;13.608;2024-03-25T12:01:30;1.58;;;0.40;;
52188;SDS011;38162;45.926;13.608;2024-03-25T12:03:56;0.50;;;0.35;;
52188;SDS011;38162;45.926;13.608;2024-03-25T12:06:22;0.40;;;0.30;;
52188;SDS011;38162;45.926;13.608;2024-03-25T12:08:48;0.98;;;0.32;;
52188;SDS011;38162;45.926;13.608;2024-03-25T12:11:33;1.55;;;0.57;;
52188;SDS011;38162;45.926;13.608;2024-03-25T12:13:59;1.60;;;0.43;;
52188;SDS011;38162;45.926;13.608;2024-03-25T12:16:25;0.82;;;0.38;;
52188;SDS011;38162;45.926;13.608;2024-03-25T12:18:51;0.60;;;0.30;;
52188;SDS011;38162;45.926;13.608;2024-03-25T12:21:20;3.90;;;0.40;;
52188;SDS011;38162;45.926;13.608;2024-03-25T12:23:47;2.08;;;0.40;;
52188;SDS011;38162;45.926;13.608;2024-03-25T12:26:13;2.20;;;0.70;;
52188;SDS011;38162;45.926;13.608;2024-03-25T12:28:39;1.60;;;0.50;;
52188;SDS011;38162;45.926;13.608;2024-03-25T12:31:08;1.02;;;0.60;;
52188;SDS011;38162;45.926;13.608;2024-03-25T12:33:45;1.38;;;0.43;;
52188;SDS011;38162;45.926;13.608;2024-03-25T12:36:11;4.13;;;0.73;;
52188;SDS011;38162;45.926;13.608;2024-03-25T12:38:37;0.77;;;0.50;;
52188;SDS011;38162;45.926;13.608;2024-03-25T12:41:04;0.80;;;0.47;;
52188;SDS011;38162;45.926;13.608;2024-03-25T12:43:32;1.40;;;0.43;;
52188;SDS011;38162;45.926;13.608;2024-03-25T12:46:02;1.58;;;0.63;;
52188;SDS011;38162;45.926;13.608;2024-03-25T12:48:47;0.70;;;0.30;;
52188;SDS011;38162;45.926;13.608;2024-03-25T12:55:10;1.10;;;0.50;;
52188;SDS011;38162;45.926;13.608;2024-03-25T13:01:14;0.32;;;0.30;;
52188;SDS011;38162;45.926;13.608;2024-03-25T13:04:36;0.55;;;0.20;;
52188;SDS011;38162;45.926;13.608;2024-03-25T13:07:06;1.08;;;0.40;;
52188;SDS011;38162;45.926;13.608;2024-03-25T13:10:07;0.75;;;0.38;;
52188;SDS011;38162;45.926;13.608;2024-03-25T13:12:34;2.15;;;0.68;;
52188;SDS011;38162;45.926;13.608;2024-03-25T13:15:00;3.58;;;0.52;;
52188;SDS011;38162;45.926;13.608;2024-03-25T13:17:26;0.63;;;0.40;;
52188;SDS011;38162;45.926;13.608;2024-03-25T13:19:51;1.23;;;0.30;;
52188;SDS011;38162;45.926;13.608;2024-03-25T13:22:17;4.28;;;0.22;;
52188;SDS011;38162;45.926;13.608;2024-03-25T13:24:43;3.00;;;0.30;;
52188;SDS011;38162;45.926;13.608;2024-03-25T13:27:09;0.98;;;0.30;;
52188;SDS011;38162;45.926;13.608;2024-03-25T13:29:34;2.10;;;0.30;;
52188;SDS011;38162;45.926;13.608;2024-03-25T13:32:02;5.57;;;0.40;;
52188;SDS011;38162;45.926;13.608;2024-03-25T13:34:28;0.52;;;0.30;;
52188;SDS011;38162;45.926;13.608;2024-03-25T13:36:54;4.95;;;0.28;;
52188;SDS011;38162;45.926;13.608;2024-03-25T13:39:20;0.55;;;0.20;;
52188;SDS011;38162;45.926;13.608;2024-03-25T13:41:46;0.80;;;0.30;;
52188;SDS011;38162;45.926;13.608;2024-03-25T13:44:12;0.10;;;0.10;;
52188;SDS011;38162;45.926;13.608;2024-03-25T13:46:38;0.30;;;0.20;;
52188;SDS011;38162;45.926;13.608;2024-03-25T13:49:04;2.00;;;0.45;;
52188;SDS011;38162;45.926;13.608;2024-03-25T13:51:29;7.95;;;2.30;;
52188;SDS011;38162;45.926;13.608;2024-03-25T13:53:55;1.27;;;0.68;;
52188;SDS011;38162;45.926;13.608;2024-03-25T13:56:21;1.60;;;0.80;;
52188;SDS011;38162;45.926;13.608;2024-03-25T13:58:46;0.90;;;0.30;;
52188;SDS011;38162;45.926;13.608;2024-03-25T14:01:12;0.25;;;0.20;;
52188;SDS011;38162;45.926;13.608;2024-03-25T14:03:38;0.40;;;0.10;;
52188;SDS011;38162;45.926;13.608;2024-03-25T14:06:04;1.65;;;0.30;;
52188;SDS011;38162;45.926;13.608;2024-03-25T14:08:30;0.30;;;0.20;;
52188;SDS011;38162;45.926;13.608;2024-03-25T14:10:59;1.23;;;0.45;;
52188;SDS011;38162;45.926;13.608;2024-03-25T14:13:26;0.45;;;0.20;;
52188;SDS011;38162;45.926;13.608;2024-03-25T14:15:53;0.35;;;0.20;;
52188;SDS011;38162;45.926;13.608;2024-03-25T14:18:18;0.90;;;0.60;;
52188;SDS011;38162;45.926;13.608;2024-03-25T14:20:44;0.90;;;0.28;;
52188;SDS011;38162;45.926;13.608;2024-03-25T14:23:11;0.60;;;0.28;;
52188;SDS011;38162;45.926;13.608;2024-03-25T14:25:38;1.02;;;0.17;;
52188;SDS011;38162;45.926;13.608;2024-03-25T14:31:39;1.02;;;0.20;;
52188;SDS011;38162;45.926;13.608;2024-03-25T14:35:04;0.60;;;0.30;;
52188;SDS011;38162;45.926;13.608;2024-03-25T14:40:46;0.35;;;0.10;;
52188;SDS011;38162;45.926;13.608;2024-03-25T14:47:10;1.10;;;0.50;;
52188;SDS011;38162;45.926;13.608;2024-03-25T14:49:37;0.75;;;0.30;;
52188;SDS011;38162;45.926;13.608;2024-03-25T14:53:10;2.15;;;0.40;;
52188;SDS011;38162;45.926;13.608;2024-03-25T14:55:49;0.98;;;0.40;;
52188;SDS011;38162;45.926;13.608;2024-03-25T14:58:16;3.63;;;0.50;;
52188;SDS011;38162;45.926;13.608;2024-03-25T15:00:42;1.67;;;0.38;;
52188;SDS011;38162;45.926;13.608;2024-03-25T15:03:08;2.28;;;0.50;;
52188;SDS011;38162;45.926;13.608;2024-03-25T15:05:35;2.78;;;0.50;;
52188;SDS011;38162;45.926;13.608;2024-03-25T15:08:00;1.50;;;0.50;;
52188;SDS011;38162;45.926;13.608;2024-03-25T15:10:26;1.25;;;0.68;;
52188;SDS011;38162;45.926;13.608;2024-03-25T15:12:53;1.70;;;0.30;;
52188;SDS011;38162;45.926;13.608;2024-03-25T15:15:19;1.60;;;0.40;;
52188;SDS011;38162;45.926;13.608;2024-03-25T15:17:45;8.88;;;0.60;;
52188;SDS011;38162;45.926;13.608;2024-03-25T15:20:11;2.85;;;0.88;;
52188;SDS011;38162;45.926;13.608;2024-03-25T15:22:37;1.08;;;0.60;;
52188;SDS011;38162;45.926;13.608;2024-03-25T15:25:04;0.73;;;0.43;;
52188;SDS011;38162;45.926;13.608;2024-03-25T15:27:30;0.98;;;0.35;;
52188;SDS011;38162;45.926;13.608;2024-03-25T15:29:55;0.40;;;0.30;;
52188;SDS011;38162;45.926;13.608;2024-03-25T15:32:21;1.45;;;0.50;;
52188;SDS011;38162;45.926;13.608;2024-03-25T15:34:47;3.53;;;0.40;;
52188;SDS011;38162;45.926;13.608;2024-03-25T15:37:13;1.80;;;0.47;;
52188;SDS011;38162;45.926;13.608;2024-03-25T15:39:40;3.33;;;0.60;;
52188;SDS011;38162;45.926;13.608;2024-03-25T15:42:06;1.58;;;0.55;;
52188;SDS011;38162;45.926;13.608;2024-03-25T15:44:32;1.77;;;0.40;;
52188;SDS011;38162;45.926;13.608;2024-03-25T15:46:57;1.52;;;0.60;;
52188;SDS011;38162;45.926;13.608;2024-03-25T15:49:23;2.13;;;0.70;;
52188;SDS011;38162;45.926;13.608;2024-03-25T15:51:49;3.42;;;1.10;;
52188;SDS011;38162;45.926;13.608;2024-03-25T15:54:15;2.05;;;1.20;;
52188;SDS011;38162;45.926;13.608;2024-03-25T15:56:41;2.33;;;1.00;;
52188;SDS011;38162;45.926;13.608;2024-03-25T15:59:07;1.48;;;0.60;;
52188;SDS011;38162;45.926;13.608;2024-03-25T16:01:33;3.55;;;0.90;;
52188;SDS011;38162;45.926;13.608;2024-03-25T16:03:59;2.33;;;0.73;;
52188;SDS011;38162;45.926;13.608;2024-03-25T16:06:25;12.25;;;1.25;;
52188;SDS011;38162;45.926;13.608;2024-03-25T16:08:51;1.80;;;0.70;;
52188;SDS011;38162;45.926;13.608;2024-03-25T16:21:55;3.72;;;1.20;;
52188;SDS011;38162;45.926;13.608;2024-03-25T16:24:27;4.05;;;1.17;;
52188;SDS011;38162;45.926;13.608;2024-03-25T16:38:07;46.15;;;3.38;;